createdAt,value
2017-06-29T00:00:03.260Z,13.47
2017-06-29T00:02:29.495Z,15.13
2017-06-29T00:04:55.726Z,13.57
2017-06-29T00:07:22.019Z,14.30
2017-06-29T00:09:48.251Z,13.43
2017-06-29T00:12:14.542Z,12.83
2017-06-29T00:14:40.818Z,12.77
2017-06-29T00:17:07.157Z,13.37
2017-06-29T00:19:33.638Z,13.50
2017-06-29T00:21:59.942Z,12.77
2017-06-29T00:24:26.220Z,13.40
2017-06-29T00:26:52.488Z,12.63
2017-06-29T00:29:18.758Z,12.33
2017-06-29T00:31:45.117Z,12.93
2017-06-29T00:34:11.395Z,12.40
2017-06-29T00:36:38.394Z,12.23
2017-06-29T00:39:04.686Z,11.80
2017-06-29T00:41:31.663Z,12.13
2017-06-29T00:43:57.938Z,12.43
2017-06-29T00:46:24.249Z,11.33
2017-06-29T00:48:51.282Z,12.20
2017-06-29T00:51:17.565Z,11.50
2017-06-29T00:53:44.543Z,11.90
2017-06-29T00:56:10.816Z,12.10
2017-06-29T00:58:37.083Z,10.60
2017-06-29T01:01:03.389Z,12.67
2017-06-29T01:03:29.656Z,11.40
2017-06-29T01:05:55.955Z,11.80
2017-06-29T01:08:22.238Z,11.23
2017-06-29T01:10:48.522Z,12.47
2017-06-29T01:13:14.798Z,11.70
2017-06-29T01:15:41.868Z,11.70
2017-06-29T01:18:08.170Z,11.10
2017-06-29T01:20:35.314Z,11.97
2017-06-29T01:23:01.636Z,11.67
2017-06-29T01:25:27.934Z,11.07
2017-06-29T01:27:54.204Z,12.00
2017-06-29T01:30:20.505Z,11.67
2017-06-29T01:32:46.796Z,12.10
2017-06-29T01:35:13.103Z,11.87
2017-06-29T01:37:40.149Z,11.60
2017-06-29T01:40:07.233Z,11.40
2017-06-29T01:42:33.498Z,11.70
2017-06-29T01:44:59.829Z,10.70
2017-06-29T01:47:26.152Z,11.57
2017-06-29T01:49:52.462Z,12.33
2017-06-29T01:52:18.755Z,12.50
2017-06-29T01:54:45.779Z,12.97
2017-06-29T01:57:12.094Z,13.10
2017-06-29T01:59:38.405Z,12.87
2017-06-29T02:02:04.754Z,13.80
2017-06-29T02:04:31.065Z,11.90
2017-06-29T02:06:57.344Z,12.37
2017-06-29T02:09:24.398Z,12.37
2017-06-29T02:11:51.417Z,13.40
2017-06-29T02:14:18.249Z,12.50
2017-06-29T02:16:44.525Z,11.77
2017-06-29T02:19:10.816Z,11.33
2017-06-29T02:21:37.094Z,11.13
2017-06-29T02:24:04.112Z,10.57
2017-06-29T02:26:30.384Z,10.60
2017-06-29T02:28:56.696Z,11.70
2017-06-29T02:31:22.960Z,10.67
2017-06-29T02:33:49.214Z,11.07
2017-06-29T02:36:15.471Z,10.50
2017-06-29T02:38:42.481Z,10.77
2017-06-29T02:41:08.757Z,11.13
2017-06-29T02:43:35.030Z,12.03
2017-06-29T02:46:01.336Z,11.97
2017-06-29T02:48:27.633Z,12.07
2017-06-29T02:50:54.660Z,11.17
2017-06-29T02:53:20.929Z,11.60
2017-06-29T02:55:47.199Z,12.03
2017-06-29T02:58:13.470Z,11.40
2017-06-29T03:00:40.477Z,12.77
2017-06-29T03:03:06.774Z,11.67
2017-06-29T03:05:33.747Z,12.90
2017-06-29T03:08:00.052Z,14.13
2017-06-29T03:10:26.342Z,12.90
2017-06-29T03:12:53.366Z,12.37
2017-06-29T03:15:19.643Z,11.83
2017-06-29T03:17:45.935Z,14.70
2017-06-29T03:20:12.974Z,14.00
2017-06-29T03:22:39.269Z,14.37
2017-06-29T03:25:05.532Z,14.07
2017-06-29T03:27:32.672Z,13.40
2017-06-29T03:29:58.964Z,12.60
2017-06-29T03:32:25.247Z,14.73
2017-06-29T03:34:52.286Z,14.80
2017-06-29T03:37:18.573Z,13.80
2017-06-29T03:39:44.856Z,14.47
2017-06-29T03:42:11.874Z,15.80
2017-06-29T03:44:38.185Z,16.83
2017-06-29T03:47:04.481Z,16.40
2017-06-29T03:49:30.792Z,16.93
2017-06-29T03:51:57.037Z,15.80
2017-06-29T03:54:24.067Z,15.37
2017-06-29T03:56:50.383Z,17.80
2017-06-29T03:59:16.700Z,17.93
2017-06-29T04:01:42.975Z,17.87
2017-06-29T04:04:09.975Z,17.70
2017-06-29T04:06:36.274Z,17.23
2017-06-29T04:09:02.560Z,18.80
2017-06-29T04:11:29.598Z,18.77
2017-06-29T04:13:55.890Z,20.63
2017-06-29T04:16:22.205Z,21.23
2017-06-29T04:18:48.463Z,24.10
2017-06-29T04:21:14.764Z,22.97
2017-06-29T04:23:41.051Z,25.90
2017-06-29T04:26:07.322Z,27.13
2017-06-29T04:28:33.618Z,26.20
2017-06-29T04:31:00.648Z,27.97
2017-06-29T04:33:26.937Z,28.53
2017-06-29T04:35:53.226Z,27.00
2017-06-29T04:38:19.553Z,29.47
2017-06-29T04:40:46.579Z,30.73
2017-06-29T04:43:12.845Z,29.60
2017-06-29T04:45:39.134Z,28.50
2017-06-29T04:48:05.404Z,29.70
2017-06-29T04:50:31.715Z,30.00
2017-06-29T04:52:58.013Z,28.00
2017-06-29T04:55:24.290Z,27.60
2017-06-29T04:57:50.590Z,26.50
2017-06-29T05:00:16.880Z,29.07
2017-06-29T05:02:43.170Z,29.30
2017-06-29T05:05:10.190Z,28.17
2017-06-29T05:07:36.474Z,28.03
2017-06-29T05:10:02.753Z,28.30
2017-06-29T05:12:29.032Z,28.20
2017-06-29T05:14:56.013Z,29.50
2017-06-29T05:17:22.320Z,27.60
2017-06-29T05:19:48.596Z,29.23
2017-06-29T05:22:15.673Z,29.83
2017-06-29T05:24:42.014Z,27.33
2017-06-29T05:27:08.309Z,27.87
2017-06-29T05:29:35.332Z,28.57
2017-06-29T05:32:01.672Z,26.50
2017-06-29T05:34:27.974Z,28.60
2017-06-29T05:36:54.261Z,26.50
2017-06-29T05:39:21.296Z,26.17
2017-06-29T05:41:48.313Z,26.87
2017-06-29T05:44:14.592Z,26.93
2017-06-29T05:46:40.890Z,26.87
2017-06-29T05:49:07.165Z,25.90
2017-06-29T05:51:33.476Z,25.50
2017-06-29T05:53:59.768Z,24.13
2017-06-29T05:56:26.028Z,25.43
2017-06-29T05:58:54.052Z,24.57
2017-06-29T06:01:20.306Z,25.00
2017-06-29T06:03:46.615Z,27.00
2017-06-29T06:06:12.904Z,25.50
2017-06-29T06:08:39.206Z,25.77
2017-06-29T06:11:06.247Z,24.17
2017-06-29T06:13:32.517Z,26.00
2017-06-29T06:15:58.800Z,25.73
2017-06-29T06:18:25.821Z,24.73
2017-06-29T06:20:52.103Z,25.43
2017-06-29T06:23:18.371Z,24.47
2017-06-29T06:25:44.663Z,24.93
2017-06-29T06:28:10.932Z,24.40
2017-06-29T06:30:37.217Z,23.47
2017-06-29T06:33:03.500Z,22.67
2017-06-29T06:35:29.809Z,22.13
2017-06-29T06:37:56.105Z,22.77
2017-06-29T06:40:22.404Z,23.20
2017-06-29T06:42:48.685Z,20.20
2017-06-29T06:45:14.967Z,20.10
2017-06-29T06:47:42.023Z,22.57
2017-06-29T06:50:09.064Z,23.33
2017-06-29T06:52:35.348Z,22.37
2017-06-29T06:55:01.626Z,21.63
2017-06-29T06:57:28.632Z,23.20
2017-06-29T06:59:54.946Z,22.37
2017-06-29T07:02:28.109Z,20.87
2017-06-29T07:04:54.400Z,20.63
2017-06-29T07:07:20.701Z,20.70
2017-06-29T07:09:47.006Z,20.83
2017-06-29T07:12:13.292Z,21.63
2017-06-29T07:14:39.635Z,20.20
2017-06-29T07:17:05.974Z,20.83
2017-06-29T07:19:32.992Z,18.73
2017-06-29T07:21:59.269Z,18.20
2017-06-29T07:24:25.539Z,18.10
2017-06-29T07:26:51.799Z,19.10
2017-06-29T07:29:18.829Z,17.17
2017-06-29T07:31:45.254Z,18.37
2017-06-29T07:34:11.858Z,18.00
2017-06-29T07:36:38.127Z,19.27
2017-06-29T07:39:04.403Z,19.83
2017-06-29T07:41:30.697Z,19.07
2017-06-29T07:43:56.997Z,19.40
2017-06-29T07:46:23.320Z,17.90
2017-06-29T07:48:49.598Z,18.90
2017-06-29T07:51:16.626Z,17.20
2017-06-29T07:53:42.918Z,18.40
2017-06-29T07:56:09.196Z,18.70
2017-06-29T07:58:35.515Z,18.13
2017-06-29T08:01:01.797Z,19.40
2017-06-29T08:03:28.077Z,17.67
2017-06-29T08:05:54.356Z,19.40
2017-06-29T08:08:20.651Z,19.00
2017-06-29T08:10:47.879Z,19.20
2017-06-29T08:13:14.167Z,19.30
2017-06-29T08:15:40.510Z,19.30
2017-06-29T08:18:06.780Z,20.63
2017-06-29T08:20:33.072Z,19.23
2017-06-29T08:22:59.388Z,17.40
2017-06-29T08:25:25.648Z,18.97
2017-06-29T08:27:51.962Z,19.47
2017-06-29T08:30:18.257Z,18.00
2017-06-29T08:32:44.597Z,18.10
2017-06-29T08:35:10.902Z,18.30
2017-06-29T08:37:37.213Z,16.70
2017-06-29T08:40:03.515Z,17.63
2017-06-29T08:42:29.801Z,15.20
2017-06-29T08:44:56.083Z,16.80
2017-06-29T08:47:22.372Z,16.00
2017-06-29T08:49:49.184Z,16.20
2017-06-29T08:52:16.223Z,13.80
2017-06-29T08:54:42.493Z,15.20
2017-06-29T08:57:08.805Z,13.63
2017-06-29T08:59:35.062Z,13.70
2017-06-29T09:02:01.365Z,13.63
2017-06-29T09:04:27.661Z,14.00
2017-06-29T09:06:53.979Z,14.13
2017-06-29T09:09:20.583Z,13.03
2017-06-29T09:11:46.875Z,14.83
2017-06-29T09:14:13.144Z,13.80
2017-06-29T09:16:39.422Z,12.20
2017-06-29T09:19:05.714Z,12.70
2017-06-29T09:21:32.000Z,12.37
2017-06-29T09:23:58.317Z,10.83
2017-06-29T09:26:25.357Z,12.60
2017-06-29T09:28:51.718Z,12.30
2017-06-29T09:31:18.017Z,13.00
2017-06-29T09:33:44.304Z,13.50
2017-06-29T09:36:10.659Z,12.80
2017-06-29T09:38:36.973Z,12.20
2017-06-29T09:41:03.269Z,12.83
2017-06-29T09:43:29.573Z,12.40
2017-06-29T09:45:55.897Z,14.60
2017-06-29T09:48:22.189Z,14.17
2017-06-29T09:50:48.538Z,14.57
2017-06-29T09:53:15.611Z,14.70
2017-06-29T09:55:41.924Z,13.43
2017-06-29T09:58:08.966Z,14.73
2017-06-29T10:00:35.267Z,14.30
2017-06-29T10:03:01.599Z,12.77
2017-06-29T10:05:27.982Z,12.43
2017-06-29T10:07:54.282Z,12.37
2017-06-29T10:10:20.590Z,14.20
2017-06-29T10:12:46.896Z,12.70
2017-06-29T10:15:13.165Z,17.40
2017-06-29T10:17:39.463Z,17.57
2017-06-29T10:20:05.758Z,17.43
2017-06-29T10:22:32.085Z,18.70
2017-06-29T10:24:58.362Z,17.10
2017-06-29T10:27:24.644Z,16.00
2017-06-29T10:29:51.286Z,16.67
2017-06-29T10:32:18.342Z,18.10
2017-06-29T10:34:45.347Z,17.37
2017-06-29T10:37:11.654Z,16.60
2017-06-29T10:39:37.936Z,17.30
2017-06-29T10:42:04.972Z,16.57
2017-06-29T10:44:31.262Z,16.37
2017-06-29T10:46:57.540Z,16.53
2017-06-29T10:49:24.572Z,16.13
2017-06-29T10:51:50.854Z,15.70
2017-06-29T10:54:17.142Z,13.93
2017-06-29T10:56:43.415Z,14.70
2017-06-29T10:59:09.723Z,14.67
2017-06-29T11:01:36.033Z,14.57
2017-06-29T11:04:02.316Z,14.93
2017-06-29T11:06:28.601Z,12.70
2017-06-29T11:08:54.929Z,14.20
2017-06-29T11:11:21.974Z,13.50
2017-06-29T11:13:49.010Z,13.57
2017-06-29T11:16:15.305Z,13.77
2017-06-29T11:18:41.599Z,13.10
2017-06-29T11:21:07.889Z,14.10
2017-06-29T11:23:35.142Z,13.90
2017-06-29T11:26:01.452Z,13.50
2017-06-29T11:28:27.741Z,12.83
2017-06-29T11:30:54.030Z,12.97
2017-06-29T11:33:20.328Z,13.60
2017-06-29T11:35:46.610Z,13.07
2017-06-29T11:38:12.894Z,11.90
2017-06-29T11:40:39.194Z,12.57
2017-06-29T11:43:05.499Z,11.33
2017-06-29T11:45:31.845Z,10.53
2017-06-29T11:47:58.175Z,10.47
2017-06-29T11:50:24.477Z,10.17
2017-06-29T11:52:51.077Z,11.67
2017-06-29T11:55:24.520Z,11.60
2017-06-29T11:57:50.905Z,11.60
2017-06-29T12:00:18.501Z,11.50
2017-06-29T12:02:45.120Z,11.10
2017-06-29T12:05:11.433Z,11.63
2017-06-29T12:07:37.710Z,10.63
2017-06-29T12:10:04.019Z,11.60
2017-06-29T12:12:30.351Z,11.53
2017-06-29T12:15:03.577Z,12.10
2017-06-29T12:17:30.520Z,11.53
2017-06-29T12:19:57.665Z,11.67
2017-06-29T12:22:24.753Z,12.50
2017-06-29T12:24:51.038Z,11.50
2017-06-29T12:27:17.337Z,12.97
2017-06-29T12:29:44.390Z,12.53
2017-06-29T12:32:10.701Z,12.93
2017-06-29T12:34:37.006Z,12.90
2017-06-29T12:37:03.395Z,12.87
2017-06-29T12:39:29.703Z,12.07
2017-06-29T12:41:56.020Z,12.00
2017-06-29T12:44:22.290Z,12.00
2017-06-29T12:46:49.371Z,12.90
2017-06-29T12:49:15.689Z,13.50
2017-06-29T12:51:42.006Z,13.40
2017-06-29T12:54:08.347Z,13.90
2017-06-29T12:56:34.938Z,13.80
2017-06-29T12:59:01.414Z,14.40
2017-06-29T13:01:27.757Z,15.10
2017-06-29T13:03:54.053Z,15.17
2017-06-29T13:06:20.345Z,16.00
2017-06-29T13:08:46.711Z,15.70
2017-06-29T13:11:13.072Z,17.13
2017-06-29T13:13:39.363Z,16.77
2017-06-29T13:16:07.992Z,18.00
2017-06-29T13:18:34.792Z,19.50
2017-06-29T13:21:01.204Z,18.93
2017-06-29T13:23:27.492Z,17.80
2017-06-29T13:25:53.784Z,18.30
2017-06-29T13:28:20.069Z,18.03
2017-06-29T13:30:47.331Z,19.57
2017-06-29T13:33:13.650Z,17.63
2017-06-29T13:35:40.123Z,17.70
2017-06-29T13:38:06.570Z,17.17
2017-06-29T13:40:33.093Z,17.10
2017-06-29T13:43:00.143Z,15.93
2017-06-29T13:45:26.444Z,16.50
2017-06-29T13:47:52.744Z,16.73
2017-06-29T13:50:19.056Z,15.00
2017-06-29T13:52:46.076Z,15.30
2017-06-29T13:55:12.443Z,14.60
2017-06-29T13:57:38.870Z,14.47
2017-06-29T14:00:06.380Z,14.37
2017-06-29T14:02:32.928Z,14.73
2017-06-29T14:05:07.414Z,14.03
2017-06-29T14:07:33.725Z,13.50
2017-06-29T14:10:00.018Z,13.60
2017-06-29T14:12:27.078Z,14.23
2017-06-29T14:14:53.359Z,15.00
2017-06-29T14:17:19.690Z,13.70
2017-06-29T14:19:46.014Z,12.57
2017-06-29T14:22:12.276Z,11.57
2017-06-29T14:24:38.602Z,10.87
2017-06-29T14:27:04.901Z,10.80
2017-06-29T14:29:31.204Z,12.10
2017-06-29T14:31:58.230Z,12.67
2017-06-29T14:34:25.307Z,11.30
2017-06-29T14:36:51.602Z,10.63
2017-06-29T14:39:18.672Z,9.37
2017-06-29T14:41:44.969Z,9.50
2017-06-29T14:44:12.050Z,10.13
2017-06-29T14:46:38.374Z,9.50
2017-06-29T14:49:05.443Z,8.20
2017-06-29T14:51:31.986Z,8.03
2017-06-29T14:53:58.314Z,6.83
2017-06-29T14:56:24.620Z,7.33
2017-06-29T14:58:51.655Z,4.60
2017-06-29T15:01:18.715Z,4.20
2017-06-29T15:03:45.729Z,4.30
2017-06-29T15:06:12.071Z,4.10
2017-06-29T15:08:38.401Z,3.90
2017-06-29T15:11:04.681Z,4.00
2017-06-29T15:13:30.962Z,2.50
2017-06-29T15:15:57.273Z,2.40
2017-06-29T15:18:23.570Z,1.90
2017-06-29T15:20:49.878Z,2.80
2017-06-29T15:23:16.185Z,1.53
2017-06-29T15:25:43.227Z,1.90
2017-06-29T15:28:10.306Z,2.00
2017-06-29T15:30:36.585Z,2.10
2017-06-29T15:33:02.856Z,2.00
2017-06-29T15:35:29.153Z,2.40
2017-06-29T15:37:55.517Z,2.90
2017-06-29T15:40:21.819Z,3.00
2017-06-29T15:42:48.136Z,3.83
2017-06-29T15:45:14.451Z,4.60
2017-06-29T15:47:40.751Z,5.67
2017-06-29T15:50:07.053Z,5.87
2017-06-29T15:52:34.069Z,5.80
2017-06-29T15:55:00.373Z,7.13
2017-06-29T15:57:26.670Z,8.00
2017-06-29T15:59:53.721Z,10.93
2017-06-29T16:02:20.743Z,11.03
2017-06-29T16:04:47.022Z,11.80
2017-06-29T16:07:13.322Z,12.57
2017-06-29T16:09:39.615Z,14.50
2017-06-29T16:12:06.907Z,14.23
2017-06-29T16:14:33.924Z,13.07
2017-06-29T16:17:01.002Z,9.97
2017-06-29T16:19:27.335Z,14.13
2017-06-29T16:21:54.361Z,18.17
2017-06-29T16:24:21.381Z,20.67
2017-06-29T16:26:47.683Z,21.07
2017-06-29T16:29:13.979Z,25.17
2017-06-29T16:31:41.002Z,23.30
2017-06-29T16:34:08.052Z,26.77
2017-06-29T16:36:34.356Z,23.47
2017-06-29T16:39:00.690Z,25.97
2017-06-29T16:41:26.986Z,25.17
2017-06-29T16:43:53.259Z,29.40
2017-06-29T16:46:19.622Z,27.47
2017-06-29T16:48:47.601Z,27.00
2017-06-29T16:51:14.646Z,28.87
2017-06-29T16:53:40.974Z,29.67
2017-06-29T16:56:07.390Z,27.73
2017-06-29T16:58:34.414Z,26.27
2017-06-29T17:01:00.762Z,27.70
2017-06-29T17:03:27.806Z,28.70
2017-06-29T17:05:54.165Z,25.33
2017-06-29T17:08:20.538Z,26.60
2017-06-29T17:10:46.858Z,25.97
2017-06-29T17:13:13.159Z,23.50
2017-06-29T17:15:39.706Z,29.43
2017-06-29T17:18:06.028Z,26.90
2017-06-29T17:20:32.332Z,25.47
2017-06-29T17:22:59.366Z,24.60
2017-06-29T17:25:25.668Z,23.53
2017-06-29T17:27:51.945Z,23.73
2017-06-29T17:30:18.970Z,24.00
2017-06-29T17:32:45.254Z,24.03
2017-06-29T17:35:11.555Z,22.20
2017-06-29T17:37:38.944Z,24.07
2017-06-29T17:40:05.233Z,23.57
2017-06-29T17:42:32.250Z,22.10
2017-06-29T17:44:58.558Z,21.93
2017-06-29T17:47:24.860Z,20.37
2017-06-29T17:49:51.167Z,20.60
2017-06-29T17:52:18.191Z,22.90
2017-06-29T17:54:45.264Z,19.30
2017-06-29T17:57:13.149Z,17.60
2017-06-29T17:59:39.581Z,16.27
2017-06-29T18:02:05.957Z,18.70
2017-06-29T18:04:32.325Z,17.63
2017-06-29T18:06:58.708Z,18.17
2017-06-29T18:09:25.151Z,17.13
2017-06-29T18:11:51.612Z,16.63
2017-06-29T18:14:18.035Z,16.77
2017-06-29T18:16:45.150Z,14.90
2017-06-29T18:19:11.474Z,17.30
2017-06-29T18:21:39.444Z,14.07
2017-06-29T18:24:05.805Z,16.00
2017-06-29T18:26:32.316Z,15.17
2017-06-29T18:28:58.818Z,13.50
2017-06-29T18:31:25.151Z,12.13
2017-06-29T18:33:51.522Z,9.57
2017-06-29T18:36:18.599Z,10.90
2017-06-29T18:38:44.928Z,11.20
2017-06-29T18:41:11.193Z,11.00
2017-06-29T18:43:37.535Z,11.40
2017-06-29T18:46:03.808Z,10.27
2017-06-29T18:48:30.112Z,11.00
2017-06-29T18:50:56.395Z,11.00
2017-06-29T18:53:22.696Z,12.50
2017-06-29T18:55:48.991Z,14.40
2017-06-29T18:58:15.262Z,13.77
2017-06-29T19:00:41.548Z,14.23
2017-06-29T19:03:07.948Z,17.50
2017-06-29T19:05:34.302Z,16.80
2017-06-29T19:08:00.560Z,16.80
2017-06-29T19:10:26.828Z,15.13
2017-06-29T19:12:53.166Z,14.57
2017-06-29T19:15:19.489Z,16.07
2017-06-29T19:17:46.523Z,17.37
2017-06-29T19:20:14.140Z,17.20
2017-06-29T19:22:40.475Z,20.27
2017-06-29T19:25:06.754Z,30.00
2017-06-29T19:27:33.798Z,24.77
2017-06-29T19:30:00.832Z,25.87
2017-06-29T19:32:27.128Z,28.10
2017-06-29T19:34:53.383Z,27.90
2017-06-29T19:37:19.706Z,27.60
2017-06-29T19:39:45.991Z,30.70
2017-06-29T19:42:12.303Z,29.50
2017-06-29T19:44:39.305Z,29.87
2017-06-29T19:47:05.626Z,28.87
2017-06-29T19:49:31.909Z,25.60
2017-06-29T19:51:58.962Z,24.60
2017-06-29T19:54:25.234Z,23.60
2017-06-29T19:56:51.510Z,26.00
2017-06-29T19:59:18.540Z,23.70
2017-06-29T20:01:44.828Z,22.73
2017-06-29T20:04:11.118Z,23.60
2017-06-29T20:06:38.138Z,20.77
2017-06-29T20:09:04.421Z,18.30
2017-06-29T20:11:30.683Z,17.73
2017-06-29T20:13:56.974Z,17.67
2017-06-29T20:16:23.262Z,19.17
2017-06-29T20:18:49.536Z,17.20
2017-06-29T20:21:16.797Z,17.50
2017-06-29T20:23:43.078Z,14.83
2017-06-29T20:26:09.373Z,16.13
2017-06-29T20:28:35.655Z,17.40
2017-06-29T20:31:01.966Z,15.60
2017-06-29T20:33:28.293Z,16.53
2017-06-29T20:35:55.337Z,14.70
2017-06-29T20:38:21.642Z,15.50
2017-06-29T20:40:47.994Z,14.50
2017-06-29T20:43:14.269Z,12.77
2017-06-29T20:45:40.564Z,13.47
2017-06-29T20:48:06.891Z,13.70
2017-06-29T20:50:33.190Z,12.10
2017-06-29T20:52:59.526Z,11.30
2017-06-29T20:55:25.814Z,10.20
2017-06-29T20:57:52.102Z,10.90
2017-06-29T21:00:18.376Z,12.83
2017-06-29T21:02:44.660Z,11.07
2017-06-29T21:05:10.940Z,11.03
2017-06-29T21:07:37.223Z,11.27
2017-06-29T21:10:03.605Z,10.00
2017-06-29T21:12:30.015Z,8.90
2017-06-29T21:14:56.349Z,9.30
2017-06-29T21:17:22.709Z,9.03
2017-06-29T21:19:49.951Z,9.30
2017-06-29T21:22:16.279Z,7.93
2017-06-29T21:24:42.588Z,8.63
2017-06-29T21:27:08.902Z,8.23
2017-06-29T21:29:36.568Z,9.33
2017-06-29T21:32:03.582Z,8.17
2017-06-29T21:34:29.914Z,7.77
2017-06-29T21:36:56.186Z,7.63
2017-06-29T21:39:22.465Z,8.17
2017-06-29T21:41:48.774Z,8.00
2017-06-29T21:44:15.059Z,6.83
2017-06-29T21:46:42.080Z,6.23
2017-06-29T21:49:08.374Z,5.60
2017-06-29T21:51:34.661Z,5.30
2017-06-29T21:54:01.668Z,5.23
2017-06-29T21:56:27.967Z,5.20
2017-06-29T21:58:54.237Z,4.97
2017-06-29T22:01:20.521Z,4.83
2017-06-29T22:03:46.802Z,3.30
2017-06-29T22:06:13.070Z,3.77
2017-06-29T22:08:39.361Z,2.67
2017-06-29T22:11:06.391Z,2.30
2017-06-29T22:13:32.674Z,1.80
2017-06-29T22:15:58.959Z,1.70
2017-06-29T22:18:25.244Z,1.80
2017-06-29T22:20:51.549Z,2.17
2017-06-29T22:23:18.567Z,2.50
2017-06-29T22:25:52.049Z,1.87
2017-06-29T22:28:18.349Z,2.20
2017-06-29T22:30:44.646Z,2.30
2017-06-29T22:33:11.662Z,1.60
2017-06-29T22:35:37.977Z,2.27
2017-06-29T22:38:04.255Z,2.00
2017-06-29T22:40:31.286Z,2.10
2017-06-29T22:42:57.549Z,2.40
2017-06-29T22:45:23.838Z,2.40
2017-06-29T22:47:50.140Z,2.80
2017-06-29T22:50:16.406Z,2.13
2017-06-29T22:52:43.452Z,2.17
2017-06-29T22:55:09.721Z,2.20
2017-06-29T22:57:36.008Z,2.10
2017-06-29T23:00:02.310Z,2.10
2017-06-29T23:02:29.389Z,1.70
2017-06-29T23:04:55.667Z,2.27
2017-06-29T23:07:21.961Z,1.40
2017-06-29T23:09:48.979Z,1.70
2017-06-29T23:12:15.240Z,1.60
2017-06-29T23:14:41.548Z,1.50
2017-06-29T23:17:08.582Z,1.50
2017-06-29T23:19:34.849Z,1.70
2017-06-29T23:22:01.122Z,1.80
2017-06-29T23:24:27.556Z,1.83
2017-06-29T23:26:53.820Z,1.90
2017-06-29T23:29:20.093Z,1.93
2017-06-29T23:31:46.360Z,1.97
2017-06-29T23:34:12.666Z,1.60
2017-06-29T23:36:38.961Z,1.80
2017-06-29T23:39:05.234Z,1.60
2017-06-29T23:41:31.529Z,1.70
2017-06-29T23:43:57.793Z,1.40
2017-06-29T23:46:24.098Z,1.50
2017-06-29T23:48:50.382Z,1.40
2017-06-29T23:51:17.421Z,1.33
2017-06-29T23:53:43.673Z,1.60
2017-06-29T23:56:10.689Z,1.57
2017-06-29T23:58:36.966Z,1.50
